createdAt,value
2019-02-24T00:03:33.321Z,13.77
2019-02-24T00:08:36.722Z,13.87
2019-02-24T00:13:40.140Z,13.80
2019-02-24T00:18:43.549Z,14.10
2019-02-24T00:23:46.986Z,15.43
2019-02-24T00:28:50.467Z,13.73
2019-02-24T00:33:53.942Z,14.93
2019-02-24T00:38:57.400Z,13.30
2019-02-24T00:44:00.826Z,14.40
2019-02-24T00:49:04.248Z,14.07
2019-02-24T00:54:07.713Z,14.07
2019-02-24T00:59:11.145Z,14.33
2019-02-24T01:04:14.577Z,12.93
2019-02-24T01:09:18.052Z,14.83
2019-02-24T01:14:21.430Z,16.37
2019-02-24T01:19:24.904Z,13.63
2019-02-24T01:24:28.309Z,13.43
2019-02-24T01:29:31.738Z,12.10
2019-02-24T01:34:35.174Z,12.23
2019-02-24T01:39:38.617Z,13.90
2019-02-24T01:44:42.077Z,12.90
2019-02-24T01:49:45.566Z,12.80
2019-02-24T01:54:48.996Z,15.67
2019-02-24T01:59:52.406Z,15.63
2019-02-24T02:04:55.840Z,15.40
2019-02-24T02:09:59.284Z,13.13
2019-02-24T02:15:02.697Z,14.93
2019-02-24T02:20:08.570Z,13.87
2019-02-24T02:25:12.016Z,14.67
2019-02-24T02:30:15.492Z,14.00
2019-02-24T02:35:18.900Z,14.30
2019-02-24T02:40:22.407Z,15.03
2019-02-24T02:45:25.910Z,13.07
2019-02-24T02:50:29.362Z,13.17
2019-02-24T02:55:32.800Z,13.40
2019-02-24T03:00:36.817Z,12.50
2019-02-24T03:05:41.877Z,12.67
2019-02-24T03:10:45.365Z,13.47
2019-02-24T03:15:48.790Z,13.07
2019-02-24T03:20:52.218Z,12.80
2019-02-24T03:25:55.632Z,15.57
2019-02-24T03:30:59.051Z,14.87
2019-02-24T03:36:02.538Z,13.73
2019-02-24T03:41:07.047Z,14.70
2019-02-24T03:46:10.614Z,13.87
2019-02-24T03:51:14.056Z,14.90
2019-02-24T03:56:17.566Z,14.27
2019-02-24T04:01:20.996Z,13.50
2019-02-24T04:06:24.444Z,12.27
2019-02-24T04:11:27.860Z,14.33
2019-02-24T04:16:31.303Z,12.43
2019-02-24T04:21:34.797Z,14.20
2019-02-24T04:26:38.258Z,14.30
2019-02-24T04:31:41.686Z,13.10
2019-02-24T04:36:45.138Z,14.57
2019-02-24T04:41:48.569Z,14.87
2019-02-24T04:46:52.002Z,13.50
2019-02-24T04:51:55.495Z,13.83
2019-02-24T04:56:58.907Z,13.93
2019-02-24T05:02:02.358Z,14.50
2019-02-24T05:07:05.785Z,13.53
2019-02-24T05:12:09.208Z,13.73
2019-02-24T05:17:12.656Z,12.60
2019-02-24T05:22:16.100Z,14.13
2019-02-24T05:27:19.528Z,14.17
2019-02-24T05:32:22.978Z,12.60
2019-02-24T05:37:26.371Z,12.53
2019-02-24T05:42:29.809Z,12.90
2019-02-24T05:47:33.253Z,12.40
2019-02-24T05:52:36.701Z,13.33
2019-02-24T05:57:40.113Z,13.80
2019-02-24T06:02:43.573Z,13.90
2019-02-24T06:07:46.988Z,10.83
2019-02-24T06:12:50.421Z,14.73
2019-02-24T06:17:53.829Z,12.97
2019-02-24T06:22:57.293Z,13.27
2019-02-24T06:28:00.807Z,12.67
2019-02-24T06:33:04.273Z,12.63
2019-02-24T06:38:07.692Z,13.47
2019-02-24T06:43:11.135Z,12.47
2019-02-24T06:48:14.545Z,11.23
2019-02-24T06:53:18.025Z,12.40
2019-02-24T06:58:21.452Z,13.33
2019-02-24T07:03:24.864Z,13.47
2019-02-24T07:08:28.361Z,14.13
2019-02-24T07:13:31.868Z,11.57
2019-02-24T07:18:36.184Z,14.37
2019-02-24T07:23:39.734Z,11.63
2019-02-24T07:28:43.110Z,12.97
2019-02-24T07:33:46.526Z,13.60
2019-02-24T07:38:49.975Z,16.37
2019-02-24T07:43:53.437Z,13.10
2019-02-24T07:48:56.858Z,14.90
2019-02-24T07:54:00.349Z,13.93
2019-02-24T07:59:03.779Z,13.43
2019-02-24T08:04:07.207Z,15.07
2019-02-24T08:09:10.619Z,13.30
2019-02-24T08:14:14.057Z,13.20
2019-02-24T08:19:17.483Z,14.70
2019-02-24T08:24:20.903Z,15.60
2019-02-24T08:29:24.343Z,12.73
2019-02-24T08:34:27.776Z,17.93
2019-02-24T08:39:31.198Z,17.20
2019-02-24T08:44:34.640Z,17.03
2019-02-24T08:49:38.067Z,15.27
2019-02-24T08:54:41.503Z,15.50
2019-02-24T08:59:44.922Z,14.40
2019-02-24T09:04:48.378Z,13.10
2019-02-24T09:09:51.822Z,12.73
2019-02-24T09:14:55.280Z,12.90
2019-02-24T09:19:58.707Z,12.97
2019-02-24T09:25:03.376Z,12.83
2019-02-24T09:30:12.107Z,12.03
2019-02-24T09:35:15.533Z,11.90
2019-02-24T09:40:18.989Z,12.77
2019-02-24T09:45:22.406Z,12.83
2019-02-24T09:50:26.024Z,10.00
2019-02-24T09:55:31.014Z,8.37
2019-02-24T10:00:34.469Z,9.10
2019-02-24T10:05:38.987Z,9.80
2019-02-24T10:10:42.507Z,8.37
2019-02-24T10:15:45.935Z,8.17
2019-02-24T10:20:49.410Z,8.27
2019-02-24T10:25:52.848Z,9.40
2019-02-24T10:30:56.307Z,9.70
2019-02-24T10:35:59.738Z,7.40
2019-02-24T10:41:03.173Z,6.80
2019-02-24T10:46:06.608Z,6.83
2019-02-24T10:51:10.023Z,7.73
2019-02-24T10:56:13.479Z,7.10
2019-02-24T11:01:16.907Z,6.90
2019-02-24T11:06:20.327Z,5.90
2019-02-24T11:11:23.757Z,7.43
2019-02-24T11:16:27.202Z,7.47
2019-02-24T11:21:30.624Z,10.60
2019-02-24T11:26:34.043Z,8.40
2019-02-24T11:31:38.585Z,7.60
2019-02-24T11:36:42.172Z,7.27
2019-02-24T11:41:45.668Z,7.13
2019-02-24T11:46:49.089Z,7.43
2019-02-24T11:51:52.668Z,8.00
2019-02-24T11:56:56.100Z,7.67
2019-02-24T12:01:59.569Z,7.37
2019-02-24T12:07:03.070Z,7.37
2019-02-24T12:12:06.508Z,6.97
2019-02-24T12:17:09.946Z,5.57
2019-02-24T12:22:13.368Z,5.80
2019-02-24T12:27:16.809Z,6.27
2019-02-24T12:32:20.224Z,5.77
2019-02-24T12:37:23.738Z,5.90
2019-02-24T12:42:27.154Z,6.37
2019-02-24T12:47:30.567Z,6.20
2019-02-24T12:52:34.027Z,5.20
2019-02-24T12:57:37.466Z,4.83
2019-02-24T13:02:40.905Z,5.90
2019-02-24T13:07:44.348Z,5.73
2019-02-24T13:12:47.778Z,5.30
2019-02-24T13:17:51.313Z,5.93
2019-02-24T13:22:54.794Z,5.43
2019-02-24T13:27:58.234Z,4.77
2019-02-24T13:33:01.680Z,5.07
2019-02-24T13:38:05.111Z,6.10
2019-02-24T13:43:08.534Z,5.17
2019-02-24T13:48:11.957Z,5.90
2019-02-24T13:53:15.377Z,6.03
2019-02-24T13:58:18.829Z,6.47
2019-02-24T14:03:22.270Z,5.77
2019-02-24T14:08:27.686Z,4.73
2019-02-24T14:13:30.884Z,4.07
2019-02-24T14:18:34.289Z,3.50
2019-02-24T14:23:37.727Z,5.03
2019-02-24T14:28:41.295Z,4.27
2019-02-24T14:33:44.743Z,4.17
2019-02-24T14:38:48.182Z,5.07
2019-02-24T14:43:51.591Z,3.90
2019-02-24T14:48:55.005Z,5.07
2019-02-24T14:53:58.419Z,4.70
2019-02-24T14:59:01.855Z,5.40
2019-02-24T15:04:05.497Z,5.23
2019-02-24T15:09:09.100Z,5.60
2019-02-24T15:14:12.604Z,5.97
2019-02-24T15:19:16.334Z,10.07
2019-02-24T15:24:19.778Z,12.43
2019-02-24T15:29:23.209Z,6.70
2019-02-24T15:34:26.620Z,5.20
2019-02-24T15:39:30.123Z,5.40
2019-02-24T15:44:33.559Z,5.00
2019-02-24T15:49:36.997Z,5.23
2019-02-24T15:54:40.420Z,5.93
2019-02-24T15:59:43.846Z,10.40
2019-02-24T16:04:47.328Z,7.00
2019-02-24T16:09:50.786Z,6.30
2019-02-24T16:14:54.208Z,7.40
2019-02-24T16:19:57.639Z,5.27
2019-02-24T16:25:01.073Z,4.77
2019-02-24T16:30:06.868Z,5.13
2019-02-24T16:35:12.863Z,5.57
2019-02-24T16:40:18.952Z,5.47
2019-02-24T16:45:22.525Z,6.73
2019-02-24T16:50:25.954Z,5.93
2019-02-24T16:55:29.464Z,6.33
2019-02-24T17:00:32.969Z,7.17
2019-02-24T17:05:36.973Z,8.63
2019-02-24T17:10:40.612Z,6.43
2019-02-24T17:15:44.108Z,5.97
2019-02-24T17:20:47.516Z,6.73
2019-02-24T17:25:52.971Z,6.77
2019-02-24T17:30:56.094Z,6.57
2019-02-24T17:35:59.516Z,8.23
2019-02-24T17:41:03.035Z,10.10
2019-02-24T17:46:06.466Z,8.10
2019-02-24T17:51:09.926Z,7.77
2019-02-24T17:56:13.332Z,8.20
2019-02-24T18:01:16.796Z,13.93
2019-02-24T18:06:20.236Z,19.40
2019-02-24T18:11:23.767Z,13.83
2019-02-24T18:16:27.166Z,14.73
2019-02-24T18:21:30.618Z,14.67
2019-02-24T18:26:34.063Z,14.57
2019-02-24T18:31:37.510Z,15.97
2019-02-24T18:36:40.965Z,14.07
2019-02-24T18:41:44.403Z,15.70
2019-02-24T18:46:47.836Z,12.77
2019-02-24T18:51:51.274Z,11.50
2019-02-24T18:56:55.656Z,11.60
2019-02-24T19:01:59.097Z,9.07
2019-02-24T19:07:02.619Z,9.50
2019-02-24T19:12:06.014Z,10.17
2019-02-24T19:17:09.452Z,11.27
2019-02-24T19:22:12.836Z,9.03
2019-02-24T19:27:16.328Z,11.07
2019-02-24T19:32:19.726Z,8.73
2019-02-24T19:37:23.276Z,8.97
2019-02-24T19:42:26.714Z,7.93
2019-02-24T19:47:30.217Z,9.17
2019-02-24T19:52:33.641Z,9.30
2019-02-24T19:57:37.100Z,10.20
2019-02-24T20:02:40.572Z,9.83
2019-02-24T20:07:43.976Z,9.87
2019-02-24T20:12:47.415Z,12.97
2019-02-24T20:17:50.891Z,13.33
2019-02-24T20:22:54.331Z,11.50
2019-02-24T20:27:57.751Z,19.57
2019-02-24T20:33:01.177Z,17.77
2019-02-24T20:38:04.614Z,18.07
2019-02-24T20:43:08.059Z,16.80
2019-02-24T20:48:12.346Z,15.53
2019-02-24T20:53:15.828Z,15.97
2019-02-24T20:58:19.265Z,18.43
2019-02-24T21:03:22.771Z,19.33
2019-02-24T21:08:26.218Z,16.87
2019-02-24T21:13:29.638Z,15.80
2019-02-24T21:18:33.121Z,13.73
2019-02-24T21:23:36.548Z,13.73
2019-02-24T21:28:40.032Z,13.40
2019-02-24T21:33:43.463Z,16.13
2019-02-24T21:38:47.112Z,19.27
2019-02-24T21:43:50.627Z,16.77
2019-02-24T21:48:54.071Z,15.13
2019-02-24T21:53:57.482Z,14.87
2019-02-24T21:59:00.913Z,13.97
2019-02-24T22:04:04.405Z,14.93
2019-02-24T22:09:09.858Z,14.83
2019-02-24T22:14:13.404Z,29.37
2019-02-24T22:19:16.855Z,30.77
2019-02-24T22:24:20.353Z,32.13
2019-02-24T22:29:23.816Z,23.33
2019-02-24T22:34:27.234Z,16.30
2019-02-24T22:39:31.729Z,16.20
2019-02-24T22:44:35.208Z,14.47
2019-02-24T22:49:38.669Z,15.20
2019-02-24T22:54:42.106Z,13.03
2019-02-24T22:59:45.588Z,13.70
2019-02-24T23:04:49.076Z,12.53
2019-02-24T23:09:52.513Z,13.77
2019-02-24T23:14:55.939Z,13.80
2019-02-24T23:19:59.352Z,14.23
2019-02-24T23:25:02.788Z,15.60
2019-02-24T23:30:08.541Z,15.37
2019-02-24T23:35:12.044Z,15.37
2019-02-24T23:40:15.465Z,12.50
2019-02-24T23:45:18.882Z,13.53
2019-02-24T23:50:22.303Z,12.50
2019-02-24T23:55:25.978Z,12.53
